createdAt,value
2018-01-13T00:00:25.259Z,7.83
2018-01-13T00:02:59.161Z,8.14
2018-01-13T00:05:30.462Z,8.42
2018-01-13T00:08:02.140Z,8.30
2018-01-13T00:10:34.743Z,7.98
2018-01-13T00:13:08.133Z,8.18
2018-01-13T00:15:39.170Z,8.32
2018-01-13T00:18:11.545Z,8.42
2018-01-13T00:20:42.604Z,8.72
2018-01-13T00:23:13.798Z,8.67
2018-01-13T00:25:46.000Z,8.27
2018-01-13T00:28:17.033Z,8.61
2018-01-13T00:30:50.053Z,8.50
2018-01-13T00:33:21.373Z,8.69
2018-01-13T00:35:54.944Z,8.26
2018-01-13T00:38:26.523Z,8.18
2018-01-13T00:40:58.944Z,8.25
2018-01-13T00:43:30.527Z,8.33
2018-01-13T00:46:02.472Z,8.54
2018-01-13T00:48:33.450Z,8.40
2018-01-13T00:51:04.586Z,8.35
2018-01-13T00:53:35.680Z,8.51
2018-01-13T00:56:07.208Z,8.56
2018-01-13T00:58:38.838Z,8.43
2018-01-13T01:01:24.087Z,8.50
2018-01-13T01:04:10.875Z,8.10
2018-01-13T01:06:49.790Z,8.25
2018-01-13T01:09:21.633Z,8.28
2018-01-13T01:12:06.274Z,8.13
2018-01-13T01:20:27.921Z,8.49
2018-01-13T01:23:35.066Z,8.47
2018-01-13T01:26:16.669Z,8.65
2018-01-13T01:29:10.295Z,8.57
2018-01-13T01:34:45.856Z,8.03
2018-01-13T01:37:18.452Z,8.07
2018-01-13T01:39:50.396Z,8.01
2018-01-13T01:42:22.215Z,8.10
2018-01-13T01:44:56.010Z,8.11
2018-01-13T01:47:27.585Z,7.80
2018-01-13T01:49:59.837Z,7.33
2018-01-13T01:52:32.006Z,7.52
2018-01-13T01:55:03.978Z,7.96
2018-01-13T01:57:35.854Z,7.99
2018-01-13T02:00:07.661Z,7.61
2018-01-13T02:02:38.988Z,7.78
2018-01-13T02:05:10.791Z,7.76
2018-01-13T02:07:42.489Z,7.32
2018-01-13T02:10:15.395Z,7.73
2018-01-13T02:12:47.761Z,7.71
2018-01-13T02:15:19.887Z,7.87
2018-01-13T02:17:53.902Z,7.89
2018-01-13T02:20:26.681Z,7.48
2018-01-13T02:22:59.472Z,7.92
2018-01-13T02:25:32.491Z,7.82
2018-01-13T02:28:07.139Z,7.62
2018-01-13T02:30:40.833Z,7.70
2018-01-13T02:33:12.668Z,7.86
2018-01-13T02:35:44.932Z,8.13
2018-01-13T02:38:17.416Z,7.80
2018-01-13T02:40:49.135Z,7.66
2018-01-13T02:43:20.812Z,7.55
2018-01-13T02:45:55.561Z,7.84
2018-01-13T02:48:27.382Z,8.02
2018-01-13T02:51:00.476Z,7.18
2018-01-13T02:53:32.870Z,7.43
2018-01-13T02:56:05.666Z,7.66
2018-01-13T02:58:37.885Z,7.61
2018-01-13T03:01:09.936Z,7.90
2018-01-13T03:03:42.971Z,7.65
2018-01-13T03:06:16.704Z,7.51
2018-01-13T03:08:52.777Z,7.61
2018-01-13T03:11:25.043Z,7.39
2018-01-13T03:13:59.593Z,7.58
2018-01-13T03:16:32.160Z,7.52
2018-01-13T03:19:04.178Z,7.65
2018-01-13T03:21:36.393Z,7.90
2018-01-13T03:24:07.533Z,7.62
2018-01-13T03:26:39.809Z,7.53
2018-01-13T03:29:11.688Z,7.54
2018-01-13T03:31:44.929Z,7.65
2018-01-13T03:34:18.907Z,7.74
2018-01-13T03:36:53.803Z,7.48
2018-01-13T03:39:26.320Z,7.42
2018-01-13T03:41:58.379Z,7.81
2018-01-13T03:44:30.027Z,7.84
2018-01-13T03:47:01.466Z,7.69
2018-01-13T03:49:32.885Z,7.50
2018-01-13T03:52:04.868Z,7.61
2018-01-13T03:54:37.589Z,7.52
2018-01-13T03:57:09.664Z,7.73
2018-01-13T03:59:41.506Z,7.63
2018-01-13T04:02:14.771Z,7.37
2018-01-13T04:04:48.149Z,7.51
2018-01-13T04:07:20.124Z,7.78
2018-01-13T04:09:53.447Z,7.27
2018-01-13T04:12:27.467Z,7.67
2018-01-13T04:14:59.818Z,7.46
2018-01-13T04:17:31.459Z,7.61
2018-01-13T04:20:03.611Z,7.08
2018-01-13T04:22:35.476Z,7.26
2018-01-13T04:25:07.513Z,7.58
2018-01-13T04:27:39.456Z,7.55
2018-01-13T04:30:12.438Z,7.70
2018-01-13T04:32:43.966Z,7.93
2018-01-13T04:35:16.648Z,7.90
2018-01-13T04:37:48.783Z,7.73
2018-01-13T04:40:20.564Z,7.79
2018-01-13T04:42:56.287Z,7.85
2018-01-13T04:45:27.964Z,7.45
2018-01-13T04:47:59.680Z,7.81
2018-01-13T04:50:31.434Z,7.73
2018-01-13T04:53:04.790Z,7.76
2018-01-13T04:55:37.352Z,7.98
2018-01-13T04:58:10.222Z,7.72
2018-01-13T05:00:41.909Z,7.88
2018-01-13T05:03:13.760Z,8.15
2018-01-13T05:05:45.886Z,7.62
2018-01-13T05:08:17.265Z,7.26
2018-01-13T05:10:49.925Z,7.48
2018-01-13T05:13:22.761Z,7.37
2018-01-13T05:15:55.968Z,7.55
2018-01-13T05:18:28.850Z,7.95
2018-01-13T05:21:00.723Z,7.26
2018-01-13T05:23:32.294Z,7.70
2018-01-13T05:26:04.832Z,7.45
2018-01-13T05:28:36.547Z,7.93
2018-01-13T05:31:08.207Z,7.74
2018-01-13T05:33:39.944Z,7.60
2018-01-13T05:36:12.666Z,7.53
2018-01-13T05:38:44.949Z,7.48
2018-01-13T05:41:17.678Z,7.10
2018-01-13T05:43:48.711Z,7.25
2018-01-13T05:46:20.388Z,7.54
2018-01-13T05:48:54.180Z,8.08
2018-01-13T05:51:26.208Z,8.05
2018-01-13T05:54:01.578Z,8.11
2018-01-13T05:56:33.056Z,8.07
2018-01-13T05:59:04.988Z,7.31
2018-01-13T06:01:37.186Z,7.45
2018-01-13T06:04:09.501Z,7.28
2018-01-13T06:06:42.982Z,7.62
2018-01-13T06:09:17.837Z,7.72
2018-01-13T06:11:50.440Z,7.65
2018-01-13T06:14:22.919Z,7.34
2018-01-13T06:16:55.673Z,6.98
2018-01-13T06:19:27.598Z,6.80
2018-01-13T06:21:59.779Z,7.06
2018-01-13T06:24:31.633Z,7.03
2018-01-13T06:27:04.717Z,7.41
2018-01-13T06:29:36.340Z,7.19
2018-01-13T06:32:08.338Z,7.53
2018-01-13T06:34:40.160Z,7.50
2018-01-13T06:37:13.170Z,7.55
2018-01-13T06:39:45.571Z,6.90
2018-01-13T06:42:18.364Z,7.28
2018-01-13T06:44:50.124Z,7.26
2018-01-13T06:47:23.236Z,7.52
2018-01-13T06:49:56.488Z,7.75
2018-01-13T06:52:28.869Z,7.46
2018-01-13T06:55:00.916Z,7.38
2018-01-13T06:57:34.095Z,7.70
2018-01-13T07:00:06.778Z,7.66
2018-01-13T07:02:38.650Z,7.62
2018-01-13T07:05:10.099Z,7.75
2018-01-13T07:07:43.704Z,7.35
2018-01-13T07:10:15.892Z,7.48
2018-01-13T07:12:47.555Z,7.10
2018-01-13T07:15:19.606Z,7.58
2018-01-13T07:17:52.763Z,7.62
2018-01-13T07:20:25.420Z,7.85
2018-01-13T07:22:59.492Z,7.47
2018-01-13T07:25:31.119Z,7.36
2018-01-13T07:28:03.110Z,7.27
2018-01-13T07:30:35.138Z,7.71
2018-01-13T07:33:06.468Z,7.48
2018-01-13T07:35:39.106Z,7.54
2018-01-13T07:38:11.238Z,7.49
2018-01-13T07:40:43.343Z,7.27
2018-01-13T07:43:15.862Z,7.28
2018-01-13T07:45:48.721Z,7.17
2018-01-13T07:48:21.387Z,7.04
2018-01-13T07:50:54.644Z,7.12
2018-01-13T07:53:27.958Z,7.45
2018-01-13T07:56:00.163Z,7.32
2018-01-13T07:58:31.869Z,7.56
2018-01-13T08:01:04.974Z,7.37
2018-01-13T08:03:37.055Z,7.63
2018-01-13T08:06:08.822Z,7.72
2018-01-13T08:08:40.787Z,7.34
2018-01-13T08:11:13.851Z,6.72
2018-01-13T08:13:47.747Z,7.06
2018-01-13T08:16:23.197Z,6.72
2018-01-13T08:18:57.752Z,7.06
2018-01-13T08:21:31.909Z,6.62
2018-01-13T08:24:06.370Z,6.96
2018-01-13T08:26:38.605Z,7.22
2018-01-13T08:29:10.142Z,6.82
2018-01-13T08:31:42.145Z,7.09
2018-01-13T08:34:15.359Z,7.15
2018-01-13T08:36:47.113Z,7.28
2018-01-13T08:39:22.972Z,7.12
2018-01-13T08:41:56.246Z,7.34
2018-01-13T08:44:29.264Z,8.01
2018-01-13T08:47:00.657Z,8.16
2018-01-13T08:49:33.024Z,7.97
2018-01-13T08:52:05.758Z,7.70
2018-01-13T08:54:37.055Z,7.27
2018-01-13T08:57:08.296Z,7.56
2018-01-13T08:59:40.583Z,7.44
2018-01-13T09:02:12.640Z,7.25
2018-01-13T09:04:44.810Z,7.27
2018-01-13T09:07:19.544Z,6.99
2018-01-13T09:09:55.658Z,7.57
2018-01-13T09:12:28.114Z,7.90
2018-01-13T09:14:59.609Z,7.47
2018-01-13T09:17:32.009Z,7.60
2018-01-13T09:20:04.252Z,7.53
2018-01-13T09:22:35.822Z,7.52
2018-01-13T09:25:08.535Z,7.56
2018-01-13T09:27:39.894Z,7.23
2018-01-13T09:30:11.555Z,7.26
2018-01-13T09:32:43.040Z,7.07
2018-01-13T09:35:15.516Z,7.53
2018-01-13T09:37:47.592Z,7.46
2018-01-13T09:40:24.089Z,7.63
2018-01-13T09:42:59.474Z,7.98
2018-01-13T09:45:32.476Z,8.12
2018-01-13T09:48:03.735Z,7.96
2018-01-13T09:50:35.181Z,7.69
2018-01-13T09:53:07.846Z,7.80
2018-01-13T09:55:39.155Z,7.97
2018-01-13T09:58:11.271Z,8.12
2018-01-13T10:00:42.868Z,8.27
2018-01-13T10:03:15.250Z,8.00
2018-01-13T10:05:46.827Z,8.05
2018-01-13T10:08:18.202Z,7.52
2018-01-13T10:10:53.278Z,7.09
2018-01-13T10:13:25.610Z,7.19
2018-01-13T10:16:01.918Z,7.20
2018-01-13T10:18:34.568Z,7.84
2018-01-13T10:21:06.652Z,7.88
2018-01-13T10:23:38.485Z,7.92
2018-01-13T10:26:10.407Z,7.82
2018-01-13T10:28:44.383Z,7.64
2018-01-13T10:31:16.095Z,7.59
2018-01-13T10:33:49.233Z,7.43
2018-01-13T10:36:22.684Z,7.44
2018-01-13T10:38:59.021Z,7.27
2018-01-13T10:41:30.248Z,7.15
2018-01-13T10:44:03.150Z,7.33
2018-01-13T10:46:35.048Z,7.57
2018-01-13T10:49:07.583Z,7.76
2018-01-13T10:51:39.718Z,7.71
2018-01-13T10:54:11.244Z,7.24
2018-01-13T10:56:43.020Z,8.28
2018-01-13T10:59:15.842Z,8.39
2018-01-13T11:01:47.348Z,8.80
2018-01-13T11:04:19.531Z,7.98
2018-01-13T11:06:50.861Z,8.36
2018-01-13T11:09:25.098Z,8.52
2018-01-13T11:11:58.260Z,7.97
2018-01-13T11:14:30.460Z,7.35
2018-01-13T11:17:04.610Z,7.61
2018-01-13T11:19:37.809Z,7.32
2018-01-13T11:22:09.627Z,7.52
2018-01-13T11:24:42.657Z,6.27
2018-01-13T11:27:14.964Z,6.80
2018-01-13T11:29:47.138Z,6.81
2018-01-13T11:32:19.850Z,6.12
2018-01-13T11:34:53.258Z,6.68
2018-01-13T11:37:25.407Z,6.31
2018-01-13T11:40:00.945Z,5.90
2018-01-13T11:42:32.582Z,5.71
2018-01-13T11:45:04.808Z,5.96
2018-01-13T11:47:36.645Z,5.72
2018-01-13T11:50:07.690Z,6.60
2018-01-13T11:55:40.048Z,6.10
2018-01-13T11:58:11.418Z,6.52
2018-01-13T12:00:42.582Z,6.48
2018-01-13T12:03:14.287Z,6.39
2018-01-13T12:05:46.036Z,6.28
2018-01-13T12:08:17.244Z,6.01
2018-01-13T12:10:49.101Z,6.63
2018-01-13T12:13:20.908Z,6.25
2018-01-13T12:15:54.551Z,6.17
2018-01-13T12:18:26.312Z,5.68
2018-01-13T12:21:03.586Z,5.61
2018-01-13T12:23:37.336Z,6.27
2018-01-13T12:26:12.577Z,6.08
2018-01-13T12:28:44.350Z,6.29
2018-01-13T12:31:15.831Z,6.09
2018-01-13T12:33:48.898Z,5.73
2018-01-13T12:36:22.386Z,6.04
2018-01-13T12:38:55.270Z,6.37
2018-01-13T12:41:27.747Z,5.74
2018-01-13T12:43:59.372Z,5.96
2018-01-13T12:46:31.435Z,5.37
2018-01-13T12:49:04.515Z,5.76
2018-01-13T12:51:36.383Z,6.00
2018-01-13T12:54:27.331Z,5.05
2018-01-13T12:57:08.310Z,2.94
2018-01-13T12:59:42.895Z,5.51
2018-01-13T13:02:21.278Z,5.71
2018-01-13T13:05:13.216Z,5.83
2018-01-13T13:07:45.763Z,6.25
2018-01-13T13:10:19.463Z,5.86
2018-01-13T13:12:51.561Z,6.15
2018-01-13T13:15:25.758Z,6.43
2018-01-13T13:17:58.145Z,6.59
2018-01-13T13:20:33.496Z,6.28
2018-01-13T13:23:06.051Z,6.31
2018-01-13T13:25:37.524Z,6.46
2018-01-13T13:28:09.430Z,6.38
2018-01-13T13:31:18.581Z,6.48
2018-01-13T13:39:49.720Z,5.33
2018-01-13T13:42:43.984Z,6.08
2018-01-13T13:45:16.172Z,6.12
2018-01-13T13:47:47.879Z,6.58
2018-01-13T13:50:21.977Z,6.41
2018-01-13T13:52:53.529Z,6.66
2018-01-13T13:55:25.201Z,6.38
2018-01-13T13:57:57.708Z,6.61
2018-01-13T14:00:31.463Z,6.44
2018-01-13T14:03:03.012Z,6.51
2018-01-13T14:05:36.179Z,6.52
2018-01-13T14:08:09.691Z,6.66
2018-01-13T14:10:42.126Z,6.90
2018-01-13T14:13:15.363Z,6.67
2018-01-13T14:15:47.633Z,6.52
2018-01-13T14:18:19.924Z,6.32
2018-01-13T14:20:52.477Z,6.48
2018-01-13T14:23:25.626Z,6.06
2018-01-13T14:25:57.177Z,6.21
2018-01-13T14:28:52.028Z,6.14
2018-01-13T14:31:24.535Z,6.45
2018-01-13T14:33:56.979Z,6.46
2018-01-13T14:39:08.003Z,6.57
2018-01-13T14:41:40.972Z,6.63
2018-01-13T14:44:13.916Z,5.93
2018-01-13T14:46:45.899Z,6.13
2018-01-13T14:49:19.569Z,6.11
2018-01-13T14:51:52.869Z,6.33
2018-01-13T14:54:24.606Z,5.75
2018-01-13T14:56:56.252Z,5.81
2018-01-13T14:59:27.753Z,6.29
2018-01-13T15:01:59.156Z,6.12
2018-01-13T15:04:31.263Z,5.72
2018-01-13T15:07:03.332Z,5.17
2018-01-13T15:09:36.026Z,5.42
2018-01-13T15:12:07.980Z,5.83
2018-01-13T15:14:39.948Z,5.50
2018-01-13T15:17:11.828Z,5.81
2018-01-13T15:19:43.550Z,5.93
2018-01-13T15:22:14.872Z,5.94
2018-01-13T15:24:46.277Z,6.03
2018-01-13T15:27:20.643Z,6.05
2018-01-13T15:29:51.788Z,5.81
2018-01-13T15:32:24.948Z,5.54
2018-01-13T15:34:56.649Z,5.86
2018-01-13T15:37:27.735Z,5.75
2018-01-13T15:39:59.069Z,5.04
2018-01-13T15:42:31.228Z,5.41
2018-01-13T15:45:03.437Z,4.90
2018-01-13T15:47:37.753Z,5.00
2018-01-13T15:50:12.155Z,5.31
2018-01-13T15:52:44.826Z,5.07
2018-01-13T15:55:17.191Z,5.46
2018-01-13T15:57:50.274Z,5.34
2018-01-13T16:00:21.904Z,5.20
2018-01-13T16:02:58.293Z,4.18
2018-01-13T16:05:30.280Z,4.54
2018-01-13T16:08:05.753Z,4.65
2018-01-13T16:13:25.498Z,5.02
2018-01-13T16:15:59.885Z,4.65
2018-01-13T16:18:43.371Z,4.99
2018-01-13T16:21:22.237Z,4.86
2018-01-13T16:24:03.746Z,4.75
2018-01-13T16:26:35.429Z,4.90
2018-01-13T16:29:07.338Z,4.96
2018-01-13T16:31:39.152Z,5.29
2018-01-13T16:34:10.874Z,5.09
2018-01-13T16:36:42.564Z,5.04
2018-01-13T16:39:33.487Z,4.53
2018-01-13T16:42:06.133Z,5.46
2018-01-13T16:44:37.930Z,5.07
2018-01-13T16:47:09.981Z,4.92
2018-01-13T16:49:41.397Z,4.46
2018-01-13T16:52:12.638Z,4.71
2018-01-13T16:54:44.179Z,4.72
2018-01-13T16:57:26.513Z,4.34
2018-01-13T17:52:01.943Z,4.40
2018-01-13T17:54:34.006Z,4.51
2018-01-13T17:57:06.596Z,4.67
2018-01-13T17:59:38.215Z,4.62
2018-01-13T18:02:10.370Z,4.69
2018-01-13T18:04:42.467Z,4.99
2018-01-13T18:07:13.648Z,4.94
2018-01-13T18:09:44.979Z,4.65
2018-01-13T18:12:16.827Z,4.92
2018-01-13T18:17:27.911Z,4.74
2018-01-13T18:20:00.222Z,4.34
2018-01-13T18:22:31.684Z,4.63
2018-01-13T18:25:04.870Z,5.00
2018-01-13T18:27:36.100Z,4.48
2018-01-13T18:30:08.013Z,4.52
2018-01-13T18:32:39.914Z,4.80
2018-01-13T18:35:12.088Z,4.75
2018-01-13T18:37:46.478Z,5.21
2018-01-13T18:40:23.237Z,3.73
2018-01-13T18:42:55.711Z,5.29
2018-01-13T18:45:27.164Z,5.22
2018-01-13T18:47:59.051Z,5.30
2018-01-13T18:50:31.335Z,5.09
2018-01-13T18:53:07.252Z,5.06
2018-01-13T18:55:39.766Z,4.92
2018-01-13T18:58:14.802Z,4.67
2018-01-13T19:00:47.644Z,4.39
2018-01-13T19:03:19.021Z,4.78
2018-01-13T19:05:52.815Z,4.84
2018-01-13T19:08:25.701Z,5.27
2018-01-13T19:10:57.124Z,5.28
2018-01-13T19:13:28.918Z,5.01
2018-01-13T19:16:01.897Z,5.01
2018-01-13T19:18:40.146Z,5.16
2018-01-13T19:21:11.587Z,5.26
2018-01-13T19:23:43.769Z,5.46
2018-01-13T19:26:17.832Z,5.51
2018-01-13T19:28:50.006Z,5.46
2018-01-13T19:31:23.090Z,5.27
2018-01-13T19:33:57.939Z,4.87
2018-01-13T19:36:30.030Z,4.90
2018-01-13T19:39:02.698Z,5.09
2018-01-13T19:41:36.471Z,5.31
2018-01-13T19:44:10.955Z,4.85
2018-01-13T19:46:55.912Z,5.05
2018-01-13T19:49:30.667Z,4.13
2018-01-13T19:52:03.199Z,5.09
2018-01-13T19:54:35.826Z,4.56
2018-01-13T19:57:08.831Z,4.91
2018-01-13T19:59:41.256Z,4.87
2018-01-13T20:02:13.780Z,4.87
2018-01-13T20:04:47.262Z,4.86
2018-01-13T20:07:19.145Z,5.06
2018-01-13T20:09:51.372Z,5.37
2018-01-13T20:12:22.673Z,4.88
2018-01-13T20:14:57.530Z,5.34
2018-01-13T20:17:29.395Z,4.83
2018-01-13T20:20:01.821Z,4.90
2018-01-13T20:22:34.941Z,4.52
2018-01-13T20:25:09.109Z,4.51
2018-01-13T20:27:43.878Z,4.23
2018-01-13T20:30:15.388Z,4.54
2018-01-13T20:32:46.644Z,4.94
2018-01-13T20:35:19.421Z,4.33
2018-01-13T20:37:50.660Z,4.22
2018-01-13T20:40:22.271Z,3.76
2018-01-13T20:42:56.657Z,4.34
2018-01-13T20:45:29.275Z,4.56
2018-01-13T20:48:02.150Z,4.85
2018-01-13T20:50:33.826Z,4.54
2018-01-13T20:53:08.109Z,4.90
2018-01-13T20:55:39.984Z,4.66
2018-01-13T20:58:12.970Z,4.67
2018-01-13T21:00:44.805Z,4.51
2018-01-13T21:03:17.071Z,4.63
2018-01-13T21:05:54.513Z,4.58
2018-01-13T21:08:40.510Z,3.94
2018-01-13T21:13:59.894Z,4.29
2018-01-13T21:16:32.480Z,4.54
2018-01-13T21:19:04.349Z,4.78
2018-01-13T21:21:36.103Z,4.75
2018-01-13T21:24:07.794Z,4.74
2018-01-13T21:26:39.979Z,4.60
2018-01-13T21:29:15.402Z,4.18
2018-01-13T21:31:48.172Z,4.75
2018-01-13T21:34:20.459Z,4.89
2018-01-13T21:36:53.157Z,4.70
2018-01-13T21:39:25.381Z,4.76
2018-01-13T21:42:05.242Z,4.87
2018-01-13T21:44:37.123Z,4.79
2018-01-13T21:47:10.034Z,4.89
2018-01-13T21:49:42.253Z,4.53
2018-01-13T21:52:13.787Z,5.23
2018-01-13T21:54:45.898Z,4.59
2018-01-13T21:57:17.727Z,4.51
2018-01-13T21:59:50.558Z,4.44
2018-01-13T22:02:22.761Z,4.12
2018-01-13T22:04:55.895Z,4.32
2018-01-13T22:07:29.327Z,4.29
2018-01-13T22:10:01.438Z,3.82
2018-01-13T22:12:33.081Z,4.21
2018-01-13T22:15:05.304Z,4.67
2018-01-13T22:17:37.128Z,4.64
2018-01-13T22:20:09.504Z,4.68
2018-01-13T22:22:47.266Z,4.81
2018-01-13T22:25:19.915Z,3.64
2018-01-13T22:27:51.441Z,4.74
2018-01-13T22:30:24.773Z,4.88
2018-01-13T22:33:02.418Z,4.01
2018-01-13T22:35:39.066Z,4.71
2018-01-13T22:38:10.680Z,4.67
2018-01-13T22:40:42.519Z,4.19
2018-01-13T22:43:15.254Z,4.17
2018-01-13T22:45:48.073Z,4.08
2018-01-13T22:48:24.577Z,4.53
2018-01-13T22:50:56.672Z,4.46
2018-01-13T22:53:29.467Z,4.78
2018-01-13T22:56:03.093Z,4.65
2018-01-13T22:58:39.558Z,4.36
2018-01-13T23:01:14.149Z,4.30
2018-01-13T23:03:46.291Z,4.37
2018-01-13T23:06:17.962Z,4.32
2018-01-13T23:08:49.091Z,4.27
2018-01-13T23:11:22.947Z,3.87
2018-01-13T23:13:55.204Z,3.85
2018-01-13T23:16:27.357Z,4.06
2018-01-13T23:18:58.939Z,3.83
2018-01-13T23:21:30.410Z,4.00
2018-01-13T23:24:03.137Z,3.82
2018-01-13T23:26:37.613Z,4.04
2018-01-13T23:29:09.117Z,4.45
2018-01-13T23:31:40.148Z,4.66
2018-01-13T23:34:13.154Z,3.97
2018-01-13T23:36:51.873Z,3.93
2018-01-13T23:39:23.863Z,4.31
